M I D A S
Marine Information and Data Acquisition System
Tripno 2059 of the Zeeleeuw from 2011-03-16 07:51:13 to 2011-03-16 15:12:10
Back to CruiseResearch ActivitiesStationsMapUnderway DataData graphs

EquipmentUnitsComment
TimeDGPSUTC
LatitudeDGPSDM.mWGS84
LongitudeDGPSDM.mWGS84
TemperatureSBE03/SBE38deg celciusITS90
ConductivitySBE21S/mITS90
SalinitySBE21 Practical Salinity Units
ChlorophylAChelsea fluorimeterg/lCalibrated in Aceton
Missing or incorrect values are displayed as -999
Sea surface data collected by the RV Zeeleeuw from 2011-03-16 07:52:53 to 2011-03-16 15:19:00
Time Latitude Longitude Temperature Conductivity Salinity ChlorophylA
2011-03-16 07:53:58 51°13.674 2°55.895 14.7604 0.067797 0.372861 -3.020363
2011-03-16 07:54:58 51°13.689 2°55.808 14.8253 0.067797 0.372874 -3.020363
2011-03-16 07:55:57 51°13.701 2°55.766 14.7549 0.067797 0.372887 -3.020363
2011-03-16 07:56:59 51°13.744 2°55.699 14.8122 0.067797 0.372907 -3.020363
2011-03-16 07:57:59 51°13.816 2°55.643 14.7978 0.067797 0.372921 -3.020363
2011-03-16 07:58:58 51°13.898 2°55.617 14.8249 0.067797 0.37296 -3.020363
2011-03-16 07:59:57 51°13.954 2°55.641 14.7903 0.067797 0.37298 -3.020363
2011-03-16 08:00:57 51°13.961 2°55.622 14.7145 0.067797 0.373067 -3.020363
2011-03-16 08:01:56 51°13.989 2°55.534 14.5893 0.067797 0.373054 -3.020363
2011-03-16 08:02:55 51°14.071 2°55.434 14.6324 0.067797 0.373047 -3.020363
2011-03-16 08:03:56 51°14.206 2°55.352 14.6903 0.067797 0.37308 -3.020363
2011-03-16 08:04:54 51°14.341 2°55.234 14.685 0.067797 0.373107 -3.020363
2011-03-16 08:05:56 51°14.489 2°55.074 14.5797 0.067694 0.372549 -3.020363
2011-03-16 08:06:56 51°14.662 2°54.916 14.4162 0.067694 0.372602 -3.020363
2011-03-16 08:07:56 51°14.833 2°54.718 14.3867 0.067694 0.372656 -3.020363
2011-03-16 08:08:56 51°15.009 2°54.522 14.3519 0.067694 0.372742 -3.020363
2011-03-16 08:09:56 51°15.178 2°54.318 14.2989 0.067694 0.372842 -3.020363
2011-03-16 08:10:56 51°15.346 2°54.113 14.3711 0.067694 0.372942 -3.020363
2011-03-16 08:11:56 51°15.513 2°53.904 14.3351 0.067591 0.37245 -3.020363
2011-03-16 08:12:56 51°15.678 2°53.687 14.3433 0.067591 0.372557 -3.020363
2011-03-16 08:13:55 51°15.841 2°53.478 14.2981 0.067591 0.372663 -3.020363
2011-03-16 08:14:56 51°16.031 2°53.307 14.3426 0.067591 0.372763 -3.020363
2011-03-16 08:15:55 51°16.218 2°53.149 14.3213 0.067489 0.372298 -3.020363
2011-03-16 08:16:56 51°16.412 2°52.988 14.3363 0.067489 0.372404 -3.020363
2011-03-16 08:17:56 51°16.604 2°52.842 14.3743 0.067489 0.372511 -3.020363
2011-03-16 08:18:56 51°16.808 2°52.737 14.4076 0.067489 0.372631 -3.020363
2011-03-16 08:19:55 51°17.01 2°52.636 14.4008 0.067489 0.372758 -3.020363
2011-03-16 08:20:55 51°17.217 2°52.538 14.3903 0.067386 0.372305 -3.020363
2011-03-16 08:21:56 51°17.432 2°52.456 14.4007 0.067386 0.372439 -3.020363
2011-03-16 08:22:56 51°17.652 2°52.445 14.4165 0.067386 0.372586 -3.020363
2011-03-16 08:23:56 51°17.874 2°52.445 14.4373 0.067283 0.372146 -3.020363
2011-03-16 08:24:55 51°18.089 2°52.443 14.4284 0.067283 0.372293 -3.020363
2011-03-16 08:25:56 51°18.311 2°52.439 14.4492 0.067283 0.372454 -3.020363
2011-03-16 08:26:56 51°18.532 2°52.45 14.4525 0.06718 0.37202 -3.020363
2011-03-16 08:27:56 51°18.752 2°52.46 14.4725 0.06718 0.372208 -3.020363
2011-03-16 08:28:55 51°18.967 2°52.469 14.4897 0.06718 0.372429 -3.020363
2011-03-16 08:29:55 51°19.187 2°52.479 14.5029 0.06718 0.372604 -3.020363
2011-03-16 08:30:56 51°19.412 2°52.486 14.5209 0.067077 0.372223 -3.020363
2011-03-16 08:31:56 51°19.633 2°52.491 14.5184 0.067077 0.372411 -3.020363
2011-03-16 08:32:56 51°19.854 2°52.495 14.5398 0.067077 0.372599 -3.020363
2011-03-16 08:33:56 51°20.076 2°52.499 8.1273 0.58018 3.627213 -3.020363
2011-03-16 08:34:56 51°20.298 2°52.5 6.1013 3.298242 31.822806 -3.020363
2011-03-16 08:35:55 51°20.516 2°52.502 5.9103 3.173671 31.580693 -3.020363
2011-03-16 08:36:56 51°20.74 2°52.507 5.8696 3.155257 31.577009 -3.020363
2011-03-16 08:37:56 51°20.917 2°52.518 5.8446 3.147706 31.556623 -3.020363
2011-03-16 08:38:56 51°21.074 2°52.544 5.8342 3.154741 31.657651 -3.020363
2011-03-16 08:39:56 51°21.229 2°52.577 5.8374 3.158673 31.720804 -3.020363
2011-03-16 08:40:56 51°21.385 2°52.628 5.8276 3.160535 31.750375 -3.020363
2011-03-16 08:41:54 51°21.534 2°52.673 5.8361 3.161259 31.76553 -3.020363
2011-03-16 08:42:54 51°21.702 2°52.721 5.8396 3.157638 31.728807 -3.020363
2011-03-16 08:43:55 51°21.926 2°52.778 5.8569 3.154638 31.697213 -3.020363
2011-03-16 08:44:56 51°22.154 2°52.835 5.8534 3.15381 31.685351 -3.020363
2011-03-16 08:45:56 51°22.379 2°52.892 5.8604 3.15381 31.680923 -3.020363
2011-03-16 08:46:55 51°22.6 2°52.945 5.8732 3.143258 31.562748 -3.020363
2011-03-16 08:47:56 51°22.829 2°52.997 5.8792 3.147189 31.597605 -3.020363
2011-03-16 08:48:56 51°23.056 2°53.046 5.9102 3.137464 31.481662 -3.020363
2011-03-16 08:49:56 51°23.284 2°53.099 5.9138 3.130843 31.392378 -3.020363
2011-03-16 08:50:56 51°23.513 2°53.149 5.9186 3.130533 31.38543 -3.020363
2011-03-16 08:51:54 51°23.734 2°53.199 5.9234 3.127325 31.341985 -3.020363
2011-03-16 08:52:55 51°23.964 2°53.252 5.9711 3.149361 31.570586 -3.020363
2011-03-16 08:53:55 51°24.191 2°53.302 5.9912 3.179054 31.865563 -3.020363
2011-03-16 08:54:56 51°24.423 2°53.354 6.0064 3.174294 31.801236 -3.020363
2011-03-16 08:55:54 51°24.643 2°53.406 6.0133 3.16519 31.692337 -3.020363
2011-03-16 08:56:54 51°24.871 2°53.454 6.0318 3.162396 31.649043 -3.020363
2011-03-16 08:57:56 51°25.104 2°53.5 6.0392 3.155878 31.56719 -3.020363
2011-03-16 08:58:56 51°25.328 2°53.539 6.0457 3.147188 31.463125 -3.020363
2011-03-16 08:59:56 51°25.552 2°53.58 6.0305 3.139222 31.381121 -3.020363
2011-03-16 09:00:55 51°25.774 2°53.618 6.0269 3.149153 31.494508 -3.020363
2011-03-16 09:01:56 51°26.006 2°53.661 6.0205 3.15474 31.55986 -3.020363
2011-03-16 09:02:56 51°26.232 2°53.701 6.0405 3.161465 31.629047 -3.020363
2011-03-16 09:03:56 51°26.461 2°53.742 6.0383 3.177708 31.801908 -3.020363
2011-03-16 09:04:55 51°26.687 2°53.763 6.0272 3.201608 32.073999 -3.020363
2011-03-16 09:05:55 51°26.916 2°53.768 6.0208 3.224165 32.333381 -3.020363
2011-03-16 09:06:56 51°27.151 2°53.781 6.0321 3.234719 32.451566 -3.020363
2011-03-16 09:07:56 51°27.383 2°53.794 6.0688 3.232339 32.408875 -3.020363
2011-03-16 09:08:56 51°27.614 2°53.832 6.0908 3.22106 32.25222 -3.020363
2011-03-16 09:09:56 51°27.843 2°53.868 6.0981 3.223647 32.266566 -3.020363
2011-03-16 09:10:56 51°28.071 2°53.906 6.1018 3.237202 32.410609 -3.020363
2011-03-16 09:11:55 51°28.295 2°53.94 6.1264 3.22375 32.25517 -3.020363
2011-03-16 09:12:55 51°28.525 2°53.977 6.1349 3.195606 31.915091 -3.020363
2011-03-16 09:13:56 51°28.759 2°54.013 6.1316 3.198607 31.951821 -3.020363
2011-03-16 09:14:55 51°28.987 2°54.044 6.1319 3.190019 31.855078 -3.020363
2011-03-16 09:15:56 51°29.217 2°54.084 6.1382 3.184536 31.795337 -3.020363
2011-03-16 09:16:56 51°29.44 2°54.124 6.1239 3.239478 32.403466 -3.020363
2011-03-16 09:17:56 51°29.665 2°54.163 6.1121 3.25293 32.56344 -3.020363
2011-03-16 09:18:56 51°29.891 2°54.201 6.1193 3.260795 32.657045 -3.020363
2011-03-16 09:19:56 51°30.117 2°54.242 6.1176 3.273109 32.788309 -3.020363
2011-03-16 09:20:55 51°30.338 2°54.282 6.1312 3.276317 32.823934 -3.020363
2011-03-16 09:21:56 51°30.569 2°54.322 6.1404 3.283354 32.890231 -3.020363
2011-03-16 09:22:56 51°30.795 2°54.364 6.138 3.291529 32.974636 -3.020363
2011-03-16 09:23:56 51°31.018 2°54.407 6.1653 3.304982 33.119525 -3.020363
2011-03-16 09:24:56 51°31.242 2°54.452 6.1834 3.328164 33.356008 -3.020363
2011-03-16 09:25:56 51°31.466 2°54.494 6.2073 3.330544 33.360279 -3.020363
2011-03-16 09:26:56 51°31.69 2°54.537 6.2177 3.333028 33.368469 -3.020363
2011-03-16 09:27:56 51°31.914 2°54.579 6.2257 3.334684 33.378544 -3.020363
2011-03-16 09:28:56 51°32.138 2°54.622 6.2368 3.33872 33.415046 -3.020363
2011-03-16 09:29:54 51°32.353 2°54.663 6.2463 3.346068 33.487388 -3.020363
2011-03-16 09:30:55 51°32.58 2°54.709 6.2713 3.359833 33.627272 -3.020363
2011-03-16 09:31:56 51°32.803 2°54.799 6.2862 3.370597 33.725413 -3.020363
2011-03-16 09:32:56 51°33.012 2°54.944 6.3039 3.375876 33.76818 -3.020363
2011-03-16 09:33:56 51°33.213 2°55.108 6.312 3.380016 33.800149 -3.020363
2011-03-16 09:34:56 51°33.34 2°55.346 6.3218 3.384053 33.836556 -3.020363
2011-03-16 09:35:56 51°33.363 2°55.563 6.3293 3.387779 33.868572 -3.020363
2011-03-16 09:36:54 51°33.302 2°55.739 6.3308 3.39047 33.897507 -3.020363
2011-03-16 09:37:56 51°33.238 2°55.942 6.3134 3.39078 33.900954 -3.020363
2011-03-16 09:38:56 51°33.183 2°56.069 6.2828 3.380119 33.804098 -3.020363
2011-03-16 09:39:56 51°33.134 2°56.048 6.2609 3.363766 33.647701 -3.020363
2011-03-16 09:40:56 51°33.134 2°55.989 6.2648 3.355797 33.57223 -3.020363
2011-03-16 09:41:56 51°33.147 2°55.955 6.2713 3.355072 33.563259 -3.020363
2011-03-16 09:42:56 51°33.163 2°55.936 6.2802 3.357453 33.581332 -3.020363
2011-03-16 09:43:56 51°33.177 2°55.931 6.2939 3.362628 33.632274 -3.020363
2011-03-16 09:44:55 51°33.194 2°55.929 6.31 3.375979 33.762801 -3.020363
2011-03-16 09:45:54 51°33.211 2°55.927 6.3137 3.38219 33.821478 -3.020363
2011-03-16 09:46:56 51°33.229 2°55.925 6.3117 3.385502 33.851707 -3.020363
2011-03-16 09:47:56 51°33.244 2°55.92 6.3167 3.38664 33.863411 -3.020363
2011-03-16 09:48:56 51°33.261 2°55.915 6.3193 3.387365 33.869584 -3.020363
2011-03-16 09:49:56 51°33.279 2°55.908 6.3211 3.3884 33.876399 -3.020363
2011-03-16 09:50:56 51°33.293 2°55.872 6.3175 3.389124 33.884441 -3.020363
2011-03-16 09:51:56 51°33.275 2°55.842 6.3223 3.388814 33.882865 -3.020363
2011-03-16 09:52:56 51°33.245 2°55.868 6.3236 3.387882 33.872524 -3.020363
2011-03-16 09:53:55 51°33.228 2°55.933 6.3233 3.387261 33.864697 -3.020363
2011-03-16 09:54:56 51°33.215 2°56.026 6.3243 3.387882 33.877199 -3.020363
2011-03-16 09:55:56 51°33.181 2°56.106 6.3233 3.387365 33.863977 -3.020363
2011-03-16 09:56:55 51°33.131 2°56.157 6.3154 3.38633 33.855292 -3.020363
2011-03-16 09:57:55 51°33.078 2°56.196 6.3135 3.385191 33.849194 -3.020363
2011-03-16 09:58:56 51°33.051 2°56.217 6.305 3.384053 33.839358 -3.020363
2011-03-16 09:59:56 51°33.052 2°56.224 6.3118 3.3766 33.764101 -3.020363
2011-03-16 10:00:56 51°33.046 2°56.22 6.3004 3.372874 33.721815 -3.020363
2011-03-16 10:01:56 51°33.035 2°56.151 6.3042 3.371943 33.712409 -3.020363
2011-03-16 10:02:55 51°33.068 2°56.054 6.3035 3.379809 33.795052 -3.020363
2011-03-16 10:03:55 51°33.102 2°56.015 6.3047 3.381672 33.821335 -3.020363
2011-03-16 10:04:55 51°33.127 2°56.001 6.3061 3.381879 33.819898 -3.020363
2011-03-16 10:05:54 51°33.149 2°55.991 6.3103 3.3825 33.823057 -3.020363
2011-03-16 10:06:54 51°33.169 2°55.98 6.3134 3.383017 33.821333 -3.020363
2011-03-16 10:07:54 51°33.19 2°55.964 6.3188 3.383328 33.821979 -3.020363
2011-03-16 10:08:55 51°33.207 2°55.935 6.32 3.383742 33.82564 -3.020363
2011-03-16 10:09:54 51°33.213 2°55.902 6.3187 3.383949 33.825137 -3.020363
2011-03-16 10:10:55 51°33.213 2°55.878 6.3205 3.382707 33.815087 -3.020363
2011-03-16 10:11:55 51°33.215 2°55.857 6.3297 3.383949 33.82607 -3.020363
2011-03-16 10:12:55 51°33.223 2°55.841 6.3285 3.383742 33.818174 -3.020363
2011-03-16 10:13:55 51°33.235 2°55.832 6.3349 3.383328 33.811715 -3.020363
2011-03-16 10:14:55 51°33.246 2°55.829 6.3298 3.383535 33.808416 -3.020363
2011-03-16 10:15:55 51°33.256 2°55.83 6.3344 3.383328 33.808917 -3.020363
2011-03-16 10:16:54 51°33.265 2°55.833 6.3397 3.383742 33.80978 -3.020363
2011-03-16 10:17:55 51°33.272 2°55.838 6.3453 3.385087 33.819109 -3.020363
2011-03-16 10:18:54 51°33.276 2°55.843 6.3377 3.385812 33.825279 -3.020363
2011-03-16 10:19:55 51°33.278 2°55.852 6.3381 3.386019 33.831306 -3.020363
2011-03-16 10:20:54 51°33.279 2°55.863 6.3406 3.386226 33.835469 -3.020363
2011-03-16 10:21:55 51°33.279 2°55.877 6.3437 3.386536 33.836114 -3.020363
2011-03-16 10:22:54 51°33.28 2°55.891 6.3454 3.386433 33.832167 -3.020363
2011-03-16 10:23:54 51°33.282 2°55.904 6.3394 3.386019 33.823844 -3.020363
2011-03-16 10:24:55 51°33.285 2°55.916 6.3448 3.385087 33.819109 -3.020363
2011-03-16 10:25:54 51°33.29 2°55.917 6.3461 3.385191 33.819324 -3.020363
2011-03-16 10:26:55 51°33.3 2°55.906 6.3459 3.38488 33.810286 -3.020363
2011-03-16 10:27:54 51°33.308 2°55.878 6.344 3.383742 33.799525 -3.020363
2011-03-16 10:28:55 51°33.308 2°55.828 6.3356 3.384052 33.809494 -3.020363
2011-03-16 10:29:54 51°33.319 2°55.781 6.3378 3.38488 33.81588 -3.020363
2011-03-16 10:30:55 51°33.337 2°55.746 6.3427 3.3825 33.787616 -3.020363
2011-03-16 10:31:54 51°33.358 2°55.723 6.346 3.380637 33.765096 -3.020363
2011-03-16 10:32:55 51°33.378 2°55.706 6.3409 3.379601 33.754551 -3.020363
2011-03-16 10:33:54 51°33.406 2°55.687 6.3429 3.379187 33.750892 -3.020363
2011-03-16 10:34:55 51°33.453 2°55.683 6.3467 3.37898 33.746736 -3.020363
2011-03-16 10:35:55 51°33.499 2°55.721 6.3568 3.378877 33.744658 -3.020363
2011-03-16 10:36:55 51°33.516 2°55.8 6.3538 3.379601 33.749898 -3.020363
2011-03-16 10:37:55 51°33.47 2°55.863 6.3503 3.38105 33.765031 -3.020363
2011-03-16 10:38:55 51°33.386 2°55.936 6.3503 3.381051 33.769686 -3.020363
2011-03-16 10:39:55 51°33.295 2°56.037 6.3473 3.380015 33.759141 -3.020363
2011-03-16 10:40:54 51°33.201 2°56.133 6.3256 3.377531 33.739974 -3.020363
2011-03-16 10:41:54 51°33.114 2°56.186 6.3068 3.37246 33.698614 -3.020363
2011-03-16 10:42:55 51°33.082 2°56.14 6.3011 3.366871 33.651489 -3.020363
2011-03-16 10:43:54 51°33.084 2°56.094 6.301 3.361385 33.598066 -3.020363
2011-03-16 10:44:55 51°33.096 2°56.068 6.3066 3.360143 33.578726 -3.020363
2011-03-16 10:45:55 51°33.109 2°56.054 6.3001 3.359626 33.57206 -3.020363
2011-03-16 10:46:55 51°33.124 2°56.05 6.2993 3.359729 33.57877 -3.020363
2011-03-16 10:47:55 51°33.137 2°56.052 6.2938 3.360971 33.591618 -3.020363
2011-03-16 10:48:55 51°33.147 2°56.054 6.2983 3.360971 33.595329 -3.020363
2011-03-16 10:49:54 51°33.156 2°56.058 6.2971 3.360764 33.592105 -3.020363
2011-03-16 10:50:54 51°33.162 2°56.064 6.2957 3.360661 33.591884 -3.020363
2011-03-16 10:51:54 51°33.168 2°56.07 6.2986 3.36035 33.591223 -3.020363
2011-03-16 10:52:55 51°33.172 2°56.078 6.3016 3.360454 33.588661 -3.020363
2011-03-16 10:53:55 51°33.177 2°56.085 6.3024 3.360247 33.586364 -3.020363
2011-03-16 10:54:56 51°33.188 2°56.056 6.2961 3.360143 33.585216 -3.020363
2011-03-16 10:55:54 51°33.188 2°55.984 6.3022 3.357245 33.554926 -3.020363
2011-03-16 10:56:54 51°33.188 2°55.87 6.308 3.354968 33.525044 -3.020363
2011-03-16 10:57:56 51°33.208 2°55.786 6.3021 3.354347 33.511682 -3.020363
2011-03-16 10:58:56 51°33.231 2°55.745 6.3018 3.353002 33.495841 -3.020363
2011-03-16 10:59:56 51°33.258 2°55.715 6.3018 3.353002 33.498615 -3.020363
2011-03-16 11:00:54 51°33.283 2°55.689 6.2986 3.352588 33.495875 -3.020363
2011-03-16 11:01:54 51°33.304 2°55.681 6.3065 3.354865 33.523896 -3.020363
2011-03-16 11:02:55 51°33.323 2°55.679 6.2978 3.356935 33.547777 -3.020363
2011-03-16 11:03:55 51°33.38 2°55.674 6.3047 3.356003 33.534669 -3.020363
2011-03-16 11:04:54 51°33.436 2°55.76 6.3036 3.355486 33.524303 -3.020363
2011-03-16 11:05:54 51°33.408 2°55.861 6.3001 3.355279 33.52571 -3.020363
2011-03-16 11:06:54 51°33.33 2°55.9 6.3009 3.356417 33.545743 -3.020363
2011-03-16 11:07:54 51°33.252 2°55.854 6.2988 3.355072 33.529894 -3.020363
2011-03-16 11:08:55 51°33.215 2°55.736 6.3003 3.351553 33.489948 -3.020363
2011-03-16 11:09:55 51°33.212 2°55.647 6.302 3.348862 33.458265 -3.020363
2011-03-16 11:10:55 51°33.23 2°55.586 6.3049 3.348034 33.45001 -3.020363
2011-03-16 11:11:55 51°33.254 2°55.543 6.3022 3.351035 33.47774 -3.020363
2011-03-16 11:12:56 51°33.279 2°55.521 6.3009 3.350104 33.46649 -3.020363
2011-03-16 11:13:55 51°33.3 2°55.512 6.3013 3.348862 33.455494 -3.020363
2011-03-16 11:14:54 51°33.315 2°55.508 6.3025 3.348862 33.4518 -3.020363
2011-03-16 11:15:54 51°33.325 2°55.506 6.3003 3.348344 33.447911 -3.020363
2011-03-16 11:16:55 51°33.334 2°55.506 6.3035 3.348448 33.447212 -3.020363
2011-03-16 11:17:56 51°33.341 2°55.511 6.3066 3.348551 33.449282 -3.020363
2011-03-16 11:18:55 51°33.349 2°55.51 6.317 3.348758 33.44696 -3.020363
2011-03-16 11:19:55 51°33.356 2°55.514 6.306 3.348862 33.447184 -3.020363
2011-03-16 11:20:53 51°33.361 2°55.518 6.3098 3.348551 33.444666 -3.020363
2011-03-16 11:21:54 51°33.366 2°55.524 6.3105 3.348448 33.441673 -3.020363
2011-03-16 11:22:54 51°33.371 2°55.529 6.315 3.348551 33.440974 -3.020363
2011-03-16 11:23:54 51°33.376 2°55.535 6.3194 3.348758 33.438654 -3.020363
2011-03-16 11:24:55 51°33.381 2°55.542 6.3113 3.349069 33.439326 -3.020363
2011-03-16 11:25:55 51°33.386 2°55.549 6.312 3.348655 33.439353 -3.020363
2011-03-16 11:26:56 51°33.392 2°55.556 6.3113 3.348034 33.432472 -3.020363
2011-03-16 11:27:54 51°33.396 2°55.562 6.3148 3.34793 33.431326 -3.020363
2011-03-16 11:28:54 51°33.4 2°55.568 6.313 3.347516 33.428584 -3.020363
2011-03-16 11:29:55 51°33.406 2°55.573 6.3098 3.348241 33.437534 -3.020363
2011-03-16 11:30:56 51°33.411 2°55.579 6.3142 3.348241 33.438457 -3.020363
2011-03-16 11:31:55 51°33.416 2°55.585 6.3149 3.348344 33.436835 -3.020363
2011-03-16 11:32:55 51°33.421 2°55.593 6.3113 3.348241 33.434766 -3.020363
2011-03-16 11:33:54 51°33.427 2°55.601 6.3138 3.348034 33.43524 -3.020363
2011-03-16 11:34:54 51°33.432 2°55.609 6.3156 3.348241 33.436611 -3.020363
2011-03-16 11:35:55 51°33.437 2°55.616 6.3167 3.348448 33.437059 -3.020363
2011-03-16 11:36:55 51°33.441 2°55.623 6.3148 3.348551 33.439129 -3.020363
2011-03-16 11:37:56 51°33.446 2°55.63 6.3168 3.348655 33.43843 -3.020363
2011-03-16 11:38:54 51°33.451 2°55.635 6.3176 3.348758 33.437732 -3.020363
2011-03-16 11:39:54 51°33.456 2°55.643 6.318 3.348965 33.43818 -3.020363
2011-03-16 11:40:56 51°33.461 2°55.651 6.3223 3.348758 33.435887 -3.020363
2011-03-16 11:41:56 51°33.466 2°55.659 6.3175 3.348965 33.43449 -3.020363
2011-03-16 11:42:54 51°33.472 2°55.667 6.3224 3.348034 33.42786 -3.020363
2011-03-16 11:43:54 51°33.478 2°55.676 6.3221 3.348344 33.429456 -3.020363
2011-03-16 11:44:56 51°33.483 2°55.686 6.326 3.347516 33.421205 -3.020363
2011-03-16 11:45:56 51°33.488 2°55.696 6.3245 3.347206 33.414079 -3.020363
2011-03-16 11:46:55 51°33.495 2°55.705 6.3254 3.348344 33.428533 -3.020363
2011-03-16 11:47:54 51°33.502 2°55.715 6.311 3.346481 33.406976 -3.020363
2011-03-16 11:48:54 51°33.508 2°55.725 6.3167 3.343894 33.384765 -3.020363
2011-03-16 11:49:55 51°33.516 2°55.733 6.3206 3.340064 33.340511 -3.020363
2011-03-16 11:50:55 51°33.522 2°55.743 6.313 3.333234 33.269465 -3.020363
2011-03-16 11:51:54 51°33.531 2°55.75 6.3052 3.324126 33.175052 -3.020363
2011-03-16 11:52:54 51°33.554 2°55.709 6.306 3.318952 33.121432 -3.020363
2011-03-16 11:53:55 51°33.539 2°55.651 6.2918 3.311914 33.0472 -3.020363
2011-03-16 11:54:55 51°33.44 2°55.69 6.2892 3.303532 32.972657 -3.020363
2011-03-16 11:55:55 51°33.297 2°55.806 6.2784 3.301255 32.94473 -3.020363
2011-03-16 11:56:54 51°33.148 2°55.915 6.2844 3.299289 32.928428 -3.020363
2011-03-16 11:57:56 51°32.994 2°56.041 6.2835 3.296805 32.8964 -3.020363
2011-03-16 11:58:54 51°32.945 2°56.2 6.2858 3.296495 32.899325 -3.020363
2011-03-16 11:59:54 51°32.982 2°56.292 6.2835 3.296702 32.896164 -3.020363
2011-03-16 12:00:55 51°33.033 2°56.302 6.2932 3.297219 32.899163 -3.020363
2011-03-16 12:01:55 51°33.063 2°56.274 6.2925 3.298771 32.910885 -3.020363
2011-03-16 12:02:55 51°33.088 2°56.25 6.2929 3.298357 32.905397 -3.020363
2011-03-16 12:03:55 51°33.148 2°56.17 6.2876 3.298047 32.90378 -3.020363
2011-03-16 12:04:55 51°33.225 2°56.054 6.2844 3.297943 32.904452 -3.020363
2011-03-16 12:05:53 51°33.278 2°55.913 6.2842 3.299082 32.921591 -3.020363
2011-03-16 12:06:55 51°33.287 2°55.735 6.2875 3.297116 32.898018 -3.020363
2011-03-16 12:07:54 51°33.291 2°55.529 6.289 3.296909 32.892095 -3.020363
2011-03-16 12:08:54 51°33.279 2°55.319 6.2922 3.295356 32.874016 -3.020363
2011-03-16 12:09:54 51°33.216 2°55.138 6.293 3.291631 32.832812 -3.020363
2011-03-16 12:10:54 51°33.106 2°55.083 6.2916 3.290492 32.825661 -3.020363
2011-03-16 12:11:55 51°32.976 2°55.104 6.3024 3.290699 32.819794 -3.020363
2011-03-16 12:12:56 51°32.868 2°55.169 6.3067 3.288733 32.798053 -3.020363
2011-03-16 12:13:55 51°32.836 2°55.258 6.3039 3.288319 32.789855 -3.020363
2011-03-16 12:14:54 51°32.808 2°55.326 6.3069 3.288216 32.785091 -3.020363
2011-03-16 12:15:54 51°32.765 2°55.378 6.3089 3.285215 32.75192 -3.020363
2011-03-16 12:16:54 51°32.722 2°55.446 6.3146 3.254687 32.409398 -3.020363
2011-03-16 12:17:56 51°32.686 2°55.484 6.2967 3.239683 32.245669 -3.020363
2011-03-16 12:18:56 51°32.666 2°55.466 6.297 3.229439 32.141599 -3.020363
2011-03-16 12:19:56 51°32.663 2°55.447 6.3101 3.22499 32.089006 -3.020363
2011-03-16 12:20:56 51°32.661 2°55.433 6.2888 3.22468 32.08647 -3.020363
2011-03-16 12:21:56 51°32.664 2°55.417 6.2987 3.229957 32.150852 -3.020363
2011-03-16 12:22:55 51°32.67 2°55.4 6.3107 3.228198 32.12259 -3.020363
2011-03-16 12:23:54 51°32.676 2°55.382 6.3288 3.226128 32.092695 -3.020363
2011-03-16 12:24:54 51°32.687 2°55.36 6.3188 3.227577 32.094492 -3.020363
2011-03-16 12:25:56 51°32.723 2°55.293 6.3261 3.227887 32.102337 -3.020363
2011-03-16 12:26:56 51°32.776 2°55.185 6.3224 3.229336 32.112984 -3.020363
2011-03-16 12:27:56 51°32.825 2°55.088 6.3313 3.231405 32.133123 -3.020363
2011-03-16 12:28:56 51°32.868 2°55.041 6.3279 3.23244 32.145409 -3.020363
2011-03-16 12:29:56 51°32.9 2°55.017 6.3318 3.230267 32.116158 -3.020363
2011-03-16 12:30:55 51°32.926 2°55.004 6.3448 3.229542 32.106411 -3.020363
2011-03-16 12:31:55 51°32.948 2°54.995 6.3415 3.229128 32.09389 -3.020363
2011-03-16 12:32:56 51°32.965 2°54.986 6.3508 3.228818 32.0834 -3.020363
2011-03-16 12:33:56 51°32.977 2°54.98 6.3536 3.229128 32.085933 -3.020363
2011-03-16 12:34:53 51°32.986 2°54.977 6.3557 3.229128 32.083281 -3.020363
2011-03-16 12:35:54 51°32.996 2°54.974 6.3527 3.229542 32.090488 -3.020363
2011-03-16 12:36:55 51°33.006 2°54.973 6.3485 3.23006 32.100605 -3.020363
2011-03-16 12:37:55 51°33.017 2°54.962 6.3533 3.231301 32.111621 -3.020363
2011-03-16 12:38:56 51°33.033 2°54.946 6.3541 3.234819 32.153898 -3.020363
2011-03-16 12:39:54 51°33.047 2°54.936 6.3533 3.235854 32.161748 -3.020363
2011-03-16 12:40:54 51°33.067 2°54.921 6.3566 3.236992 32.170736 -3.020363
2011-03-16 12:41:56 51°33.11 2°54.909 6.3513 3.238234 32.180862 -3.020363
2011-03-16 12:42:55 51°33.136 2°54.91 6.3562 3.240717 32.21353 -3.020363
2011-03-16 12:43:54 51°33.167 2°54.9 6.3502 3.242684 32.237848 -3.020363
2011-03-16 12:44:54 51°33.186 2°54.831 6.334 3.245891 32.272295 -3.020363
2011-03-16 12:45:53 51°33.143 2°54.818 6.3377 3.255929 32.401645 -3.020363
2011-03-16 12:46:55 51°33.089 2°54.908 6.3478 3.254377 32.382743 -3.020363
2011-03-16 12:47:55 51°33.021 2°54.996 6.3545 3.253135 32.352996 -3.020363
2011-03-16 12:48:55 51°32.949 2°55.056 6.3512 3.24972 32.314476 -3.020363
2011-03-16 12:49:55 51°32.89 2°55.146 6.3509 3.24765 32.297014 -3.020363
2011-03-16 12:50:55 51°32.852 2°55.262 6.3587 3.248064 32.304246 -3.020363
2011-03-16 12:51:54 51°32.833 2°55.355 6.3592 3.245167 32.267872 -3.020363
2011-03-16 12:52:54 51°32.827 2°55.42 6.3583 3.241131 32.220751 -3.020363
2011-03-16 12:53:54 51°32.815 2°55.473 6.3602 3.236371 32.162128 -3.020363
2011-03-16 12:54:55 51°32.787 2°55.479 6.344 3.23275 32.124029 -3.020363
2011-03-16 12:55:55 51°32.777 2°55.441 6.3518 3.241545 32.236858 -3.020363
2011-03-16 12:56:55 51°32.774 2°55.395 6.355 3.230784 32.105925 -3.020363
2011-03-16 12:57:55 51°32.775 2°55.347 6.3647 3.23068 32.096828 -3.020363
2011-03-16 12:58:55 51°32.782 2°55.304 6.3683 3.231508 32.102401 -3.020363
2011-03-16 12:59:54 51°32.792 2°55.274 6.3771 3.232232 32.103299 -3.020363
2011-03-16 13:00:54 51°32.805 2°55.253 6.3709 3.233888 32.117094 -3.020363
2011-03-16 13:01:55 51°32.816 2°55.242 6.3751 3.234716 32.125318 -3.020363
2011-03-16 13:02:55 51°32.819 2°55.244 6.3777 3.235336 32.132148 -3.020363
2011-03-16 13:03:55 51°32.82 2°55.256 6.3695 3.236164 32.140372 -3.020363
2011-03-16 13:04:54 51°32.822 2°55.27 6.3392 3.251375 32.320252 -3.020363
2011-03-16 13:05:54 51°32.826 2°55.288 6.3471 3.267829 32.526639 -3.020363
2011-03-16 13:06:55 51°32.831 2°55.303 6.357 3.257481 32.400896 -3.020363
2011-03-16 13:07:55 51°32.834 2°55.308 6.3564 3.254273 32.361973 -3.020363
2011-03-16 13:08:55 51°32.837 2°55.306 6.3634 3.255411 32.374517 -3.020363
2011-03-16 13:09:55 51°32.841 2°55.298 6.3833 3.248478 32.281227 -3.020363
2011-03-16 13:10:55 51°32.848 2°55.29 6.3864 3.241131 32.187938 -3.020363
2011-03-16 13:11:54 51°32.854 2°55.283 6.3923 3.239061 32.159858 -3.020363
2011-03-16 13:12:54 51°32.86 2°55.276 6.3935 3.238854 32.154927 -3.020363
2011-03-16 13:13:55 51°32.864 2°55.269 6.3948 3.238854 32.153157 -3.020363
2011-03-16 13:14:55 51°32.87 2°55.263 6.4041 3.238854 32.153157 -3.020363
2011-03-16 13:15:54 51°32.873 2°55.256 6.4035 3.239268 32.155056 -3.020363
2011-03-16 13:16:54 51°32.876 2°55.249 6.3999 3.239475 32.154678 -3.020363
2011-03-16 13:17:55 51°32.882 2°55.235 6.4084 3.239475 32.154678 -3.020363
2011-03-16 13:18:55 51°32.897 2°55.205 6.4128 3.239889 32.154807 -3.020363
2011-03-16 13:19:55 51°32.922 2°55.166 6.4101 3.241234 32.163406 -3.020363
2011-03-16 13:20:54 51°32.946 2°55.138 6.4093 3.242372 32.175035 -3.020363
2011-03-16 13:21:54 51°32.961 2°55.121 6.3975 3.242993 32.181861 -3.020363
2011-03-16 13:22:55 51°32.969 2°55.109 6.4409 3.244442 32.185399 -3.020363
2011-03-16 13:23:54 51°32.972 2°55.1 6.4529 3.248374 32.195879 -3.020363
2011-03-16 13:24:55 51°32.972 2°55.095 6.4592 3.249719 32.203579 -3.020363
2011-03-16 13:25:55 51°32.971 2°55.093 6.4541 3.249512 32.19512 -3.020363
2011-03-16 13:26:55 51°32.971 2°55.092 6.4604 3.249926 32.197013 -3.020363
2011-03-16 13:27:54 51°32.972 2°55.072 6.4704 3.250132 32.198401 -3.020363
2011-03-16 13:28:55 51°32.965 2°55.015 6.4384 3.250133 32.203704 -3.020363
2011-03-16 13:29:54 51°32.926 2°54.968 6.4485 3.254789 32.269003 -3.020363
2011-03-16 13:30:55 51°32.833 2°54.891 6.4432 3.252616 32.246016 -3.020363
2011-03-16 13:31:54 51°32.704 2°54.856 6.4455 3.254479 32.267365 -3.020363
2011-03-16 13:32:54 51°32.546 2°54.813 6.4445 3.25541 32.272279 -3.020363
2011-03-16 13:33:55 51°32.369 2°54.763 6.4377 3.249408 32.21255 -3.020363
2011-03-16 13:34:55 51°32.193 2°54.712 6.4424 3.254893 32.275457 -3.020363
2011-03-16 13:35:55 51°32.017 2°54.673 6.4465 3.259653 32.321552 -3.020363
2011-03-16 13:36:55 51°31.842 2°54.635 6.4453 3.267207 32.404573 -3.020363
2011-03-16 13:37:55 51°31.667 2°54.588 6.444 3.274244 32.486395 -3.020363
2011-03-16 13:38:55 51°31.49 2°54.547 6.438 3.281487 32.563388 -3.020363
2011-03-16 13:39:54 51°31.317 2°54.513 6.4402 3.282936 32.586485 -3.020363
2011-03-16 13:40:55 51°31.139 2°54.469 6.4482 3.281591 32.566315 -3.020363
2011-03-16 13:41:54 51°30.966 2°54.435 6.4523 3.27621 32.500878 -3.020363
2011-03-16 13:42:55 51°30.786 2°54.405 6.4343 3.27652 32.503399 -3.020363
2011-03-16 13:43:54 51°30.609 2°54.37 6.4367 3.276624 32.523291 -3.020363
2011-03-16 13:44:55 51°30.423 2°54.341 6.4359 3.272277 32.469233 -3.020363
2011-03-16 13:45:54 51°30.243 2°54.314 6.4389 3.270622 32.452807 -3.020363
2011-03-16 13:46:55 51°30.051 2°54.282 6.4426 3.271346 32.456316 -3.020363
2011-03-16 13:47:54 51°29.864 2°54.252 6.4442 3.272588 32.467296 -3.020363
2011-03-16 13:48:54 51°29.676 2°54.219 6.4438 3.273726 32.478029 -3.020363
2011-03-16 13:49:55 51°29.482 2°54.188 6.4543 3.277969 32.524688 -3.020363
2011-03-16 13:50:55 51°29.295 2°54.152 6.4712 3.281591 32.559161 -3.020363
2011-03-16 13:51:55 51°29.106 2°54.123 6.4705 3.281798 32.565909 -3.020363
2011-03-16 13:52:54 51°28.921 2°54.089 6.4613 3.283661 32.586399 -3.020363
2011-03-16 13:53:54 51°28.732 2°54.047 6.4735 3.274761 32.48584 -3.020363
2011-03-16 13:54:54 51°28.543 2°54.006 6.4859 3.260998 32.32036 -3.020363
2011-03-16 13:55:55 51°28.35 2°53.971 6.4976 3.177286 31.07722 -3.020363
2011-03-16 13:56:54 51°28.163 2°53.938 6.5193 0.425004 2.681539 -3.020363
2011-03-16 13:57:55 51°27.968 2°53.896 6.5394 0.15448 0.931112 -3.020363
2011-03-16 13:58:55 51°27.777 2°53.865 6.556 0.129389 0.781049 -3.020363
2011-03-16 13:59:55 51°27.585 2°53.832 6.5471 0.128361 0.772358 -3.020363
2011-03-16 14:00:55 51°27.392 2°53.791 6.5365 0.120854 0.725261 -3.020363
2011-03-16 14:01:55 51°27.198 2°53.751 6.562 0.117975 0.714474 -3.020363
2011-03-16 14:02:54 51°27.009 2°53.717 6.5296 0.123014 0.760732 -3.020363
2011-03-16 14:03:55 51°26.812 2°53.681 6.5506 0.123117 0.779508 -3.020363
2011-03-16 14:04:54 51°26.621 2°53.646 6.5774 0.114891 0.738543 -3.020363
2011-03-16 14:05:55 51°26.424 2°53.607 6.5277 0.109236 0.71463 -3.020363
2011-03-16 14:06:54 51°26.233 2°53.572 6.5268 0.10646 0.712056 -3.020363
2011-03-16 14:07:54 51°26.038 2°53.552 6.5299 0.111705 0.759654 -3.020363
2011-03-16 14:08:54 51°25.843 2°53.53 6.5391 0.112322 0.77233 -3.020363
2011-03-16 14:09:55 51°25.643 2°53.506 6.5001 0.105432 0.727635 -3.020363
2011-03-16 14:10:55 51°25.445 2°53.48 6.5372 0.101011 0.700434 -3.020363
2011-03-16 14:11:55 51°25.248 2°53.455 6.7913 0.099469 0.694812 -3.020363
2011-03-16 14:12:55 51°25.048 2°53.424 7.1211 0.099469 0.695028 -3.020363
2011-03-16 14:13:55 51°24.854 2°53.396 7.2478 0.099366 0.694344 -3.020363
2011-03-16 14:14:55 51°24.673 2°53.366 7.387 0.099263 0.693344 -3.020363
2011-03-16 14:15:55 51°24.531 2°53.339 7.5194 0.099263 0.693128 -3.020363
2011-03-16 14:16:54 51°24.437 2°53.323 7.6732 0.099366 0.693346 -3.020363
2011-03-16 14:17:55 51°24.311 2°53.301 7.7826 0.099366 0.6927 -3.020363
2011-03-16 14:18:55 51°24.165 2°53.272 7.9167 0.099468 0.692951 -3.020363
2011-03-16 14:19:55 51°23.986 2°53.239 8.047 0.099571 0.69317 -3.020363
2011-03-16 14:20:54 51°23.795 2°53.202 8.176 0.099777 0.694301 -3.020363
2011-03-16 14:21:54 51°23.586 2°53.162 8.3042 0.09988 0.694684 -3.020363
2011-03-16 14:22:55 51°23.361 2°53.128 8.4142 0.099983 0.695099 -3.020363
2011-03-16 14:23:55 51°23.144 2°53.088 8.5429 0.100085 0.695482 -3.020363
2011-03-16 14:24:55 51°22.928 2°53.045 8.6425 0.100188 0.695946 -3.020363
2011-03-16 14:25:54 51°22.717 2°53.009 8.7745 0.100291 0.696262 -3.020363
2011-03-16 14:26:55 51°22.497 2°52.969 8.8797 0.100394 0.69656 -3.020363
2011-03-16 14:27:54 51°22.288 2°52.886 8.9678 0.100497 0.696974 -3.020363
2011-03-16 14:28:54 51°22.07 2°52.8 9.0984 0.100497 0.696743 -3.020363
2011-03-16 14:29:55 51°21.852 2°52.715 9.1659 0.1006 0.697239 -3.020363
2011-03-16 14:30:55 51°21.638 2°52.638 9.2632 0.100702 0.697719 -3.020363
2011-03-16 14:31:55 51°21.432 2°52.56 9.3456 0.100805 0.698198 -3.020363
2011-03-16 14:32:55 51°21.233 2°52.481 9.4471 0.100805 0.6979 -3.020363
2011-03-16 14:33:54 51°21.038 2°52.405 9.5705 0.100908 0.698396 -3.020363
2011-03-16 14:34:54 51°20.837 2°52.354 9.6841 0.101011 0.698891 -3.020363
2011-03-16 14:35:55 51°20.633 2°52.303 9.7396 0.101011 0.698659 -3.020363
2011-03-16 14:36:55 51°20.43 2°52.251 9.8543 0.101114 0.699121 -3.020363
2011-03-16 14:37:55 51°20.229 2°52.201 9.9249 0.101114 0.698856 -3.020363
2011-03-16 14:38:54 51°20.033 2°52.13 10.0151 0.101216 0.699301 -3.020363
2011-03-16 14:39:55 51°19.833 2°52.047 10.1148 0.101216 0.698987 -3.020363
2011-03-16 14:40:55 51°19.638 2°51.965 10.2147 0.101319 0.699415 -3.020363
2011-03-16 14:41:55 51°19.439 2°51.902 10.2553 0.101319 0.699167 -3.020363
2011-03-16 14:42:54 51°19.24 2°51.877 10.3831 0.101422 0.699595 -3.020363
2011-03-16 14:43:54 51°19.038 2°51.865 10.4106 0.101422 0.699381 -3.020363
2011-03-16 14:44:54 51°18.837 2°51.868 10.5396 0.101525 0.699808 -3.020363
2011-03-16 14:45:55 51°18.634 2°51.868 10.5906 0.101525 0.699577 -3.020363
2011-03-16 14:46:54 51°18.437 2°51.873 10.6421 0.101628 0.700037 -3.020363
2011-03-16 14:47:55 51°18.236 2°51.893 10.7888 0.101628 0.699773 -3.020363
2011-03-16 14:48:55 51°18.042 2°51.951 10.8329 0.101731 0.700249 -3.020363
2011-03-16 14:49:54 51°17.851 2°52.009 10.9095 0.101731 0.700019 -3.020363
2011-03-16 14:50:55 51°17.653 2°52.073 10.9377 0.101833 0.700494 -3.020363
2011-03-16 14:51:54 51°17.459 2°52.129 11.0318 0.101833 0.700264 -3.020363
2011-03-16 14:52:54 51°17.273 2°52.233 11.1566 0.101936 0.700772 -3.020363
2011-03-16 14:53:55 51°17.096 2°52.379 11.1903 0.101936 0.700492 -3.020363
2011-03-16 14:54:55 51°16.926 2°52.524 11.2595 0.102039 0.70105 -3.020363
2011-03-16 14:55:55 51°16.753 2°52.664 11.3756 0.102142 0.701557 -3.020363
2011-03-16 14:56:55 51°16.579 2°52.801 11.4302 0.102142 0.70131 -3.020363
2011-03-16 14:57:55 51°16.404 2°52.936 11.5088 0.102245 0.701818 -3.020363
2011-03-16 14:58:55 51°16.225 2°53.06 11.528 0.102245 0.701653 -3.020363
2011-03-16 14:59:54 51°16.056 2°53.198 11.629 0.102347 0.702094 -3.020363
2011-03-16 15:00:55 51°15.883 2°53.343 11.672 0.102347 0.701913 -3.020363
2011-03-16 15:01:55 51°15.718 2°53.496 11.678 0.10245 0.702453 -3.020363
2011-03-16 15:02:55 51°15.557 2°53.659 11.845 0.10245 0.702124 -3.020363
2011-03-16 15:03:54 51°15.401 2°53.83 11.8317 0.102553 0.702663 -3.020363
2011-03-16 15:04:55 51°15.248 2°54.027 11.9237 0.102553 0.7024 -3.020363
2011-03-16 15:05:54 51°15.102 2°54.217 12.0357 0.102656 0.70284 -3.020363
2011-03-16 15:06:55 51°14.955 2°54.422 12.0474 0.102656 0.702627 -3.020363
2011-03-16 15:07:54 51°14.802 2°54.611 12.1414 0.102759 0.703149 -3.020363
2011-03-16 15:08:55 51°14.647 2°54.804 12.1697 0.102759 0.702886 -3.020363
2011-03-16 15:09:55 51°14.493 2°54.988 12.2556 0.102862 0.703408 -3.020363
2011-03-16 15:10:55 51°14.347 2°55.19 12.2526 0.102964 0.703896 -3.020363
2011-03-16 15:11:55 51°14.193 2°55.355 12.3094 0.102964 0.703699 -3.020363
2011-03-16 15:12:55 51°14.042 2°55.473 12.3469 0.102964 0.703502 -3.020363
2011-03-16 15:13:55 51°13.906 2°55.571 12.4007 0.103067 0.704056 -3.020363
2011-03-16 15:14:55 51°13.797 2°55.663 12.4653 0.103067 0.703892 -3.020363
2011-03-16 15:15:56 51°13.732 2°55.764 12.5367 0.10317 0.704429 -3.020363
2011-03-16 15:16:55 51°13.691 2°55.85 12.6008 0.10317 0.704265 -3.020363
2011-03-16 15:17:56 51°13.668 2°55.932 12.6581 0.10317 0.704085 -3.020363
2011-03-16 15:18:55 51°13.662 2°55.96 12.7309 0.10317 0.703937 -3.020363